Flight Track Log - Related Links

Times and Time Zones

All times are in EDT time to prevent confusion due to time zone crossing. See the SWA378 flight status page for this flight to view local times or setup timezone preferences in your user account.

Time Position Orientation Groundspeed Altitude Reporting Facility
EDT Latitude Longitude Course Direction KTS MPH feet Rate Location/Type
Tue 10:48:01 PM 39.1281 -76.5922 284° West 160 184 3,700  Level Washington Center
Tue 10:49:03 PM 39.1161 -76.5067 100° East 215 247 6,100 2,705 Climbing Washington Center
Tue 10:50:03 PM 39.1294 -76.4103 80° East 227 261 9,200 3,124 Climbing Washington Center
Tue 10:51:04 PM 39.1383 -76.3089 84° East 256 295 12,400 3,479 Climbing Washington Center
Tue 10:52:02 PM 39.1514 -76.1992 81° East 288 331 16,100 2,881 Climbing Washington Center
Tue 10:53:00 PM 39.1533 -76.5666 284° West  Level FlightAware Approximate
Tue 10:54:01 PM 39.1881 -75.9397 80° East 348 400 20,900  Level Washington Center
Tue 10:55:01 PM 39.2403 -75.8219 60° Northeast 372 428 23,500 2,700 Climbing Washington Center
Tue 10:56:01 PM 39.3175 -75.7203 46° Northeast 372 428 26,300 2,656 Climbing Washington Center
Tue 10:57:03 PM 39.3928 -75.6211 45° Northeast 377 434 28,900 1,350 Climbing Washington Center
Tue 10:58:01 PM 39.4678 -75.5244 45° Northeast 377 434 29,000 50 Climbing Washington Center
Tue 10:59:02 PM 39.5467 -75.4219 45° Northeast 385 443 29,000  Level Washington Center
Tue 11:00:02 PM 39.6278 -75.3142 46° Northeast 397 457 29,000  Level Washington Center
Tue 11:00:17 PM 39.6583 -75.2769 43° Northeast 398 458 29,000  Level New York Center
Tue 11:01:16 PM 39.7289 -75.1786 47° Northeast 405 466 29,000  Level New York Center
Tue 11:02:17 PM 39.8056 -75.0808 44° Northeast 411 473 29,000  Level New York Center
Tue 11:03:18 PM 39.8950 -74.9672 44° Northeast 411 473 29,000  Level New York Center
Tue 11:04:18 PM 39.9861 -74.8644 41° Northeast 419 482 29,000  Level New York Center
Tue 11:05:16 PM 40.0581 -74.7764 43° Northeast 413 475 29,000  Level New York Center
Tue 11:06:17 PM 40.1539 -74.6572 44° Northeast 413 475 29,000  Level New York Center
Tue 11:07:16 PM 40.2428 -74.5478 43° Northeast 424 488 29,000  Level New York Center
Tue 11:08:17 PM 40.3297 -74.4383 44° Northeast 424 488 29,000  Level New York Center
Tue 11:09:18 PM 40.4183 -74.3286 43° Northeast 424 488 29,000  Level New York Center
Tue 11:10:18 PM 40.4942 -74.2342 43° Northeast 424 488 29,000  Level New York Center
Tue 11:11:16 PM 40.5808 -74.1239 44° Northeast 424 488 29,000 -1,280 Level New York Center
Tue 11:13:02 PM 40.7314 -73.9408 43° Northeast 412 474 25,500 -1,807 Descending Boston Center
Tue 11:14:02 PM 40.8119 -73.8386 44° Northeast 401 461 24,000 -750 Descending Boston Center
Tue 11:15:02 PM 40.8944 -73.7417 42° Northeast 401 461 24,000  Level Boston Center
Tue 11:16:02 PM 40.9769 -73.6442 42° Northeast 401 461 24,000  Level Boston Center
Tue 11:17:02 PM 41.0956 -73.6519 357° North 382 440 24,000  Level Boston Center
Tue 11:18:02 PM 41.2058 -73.6650 355° North 375 432 24,000 -400 Level Boston Center
Tue 11:19:02 PM 41.3183 -73.6728 357° North 387 445 23,200 -900 Descending Boston Center
Tue 11:20:02 PM 41.4267 -73.6831 356° North 393 452 22,200 -900 Descending Boston Center
Tue 11:21:02 PM 41.5453 -73.6911 357° North 393 452 21,400 -1,050 Descending Boston Center
Tue 11:22:02 PM 41.6411 -73.6983 357° North 385 443 20,100 -500 Descending Boston Center
Tue 11:24:02 PM 41.8450 -73.7219 355° North 380 437 19,900 -767 Descending Boston Center
Tue 11:25:02 PM 41.9553 -73.7297 357° North 369 425 17,800 -2,200 Descending Boston Center
Tue 11:26:02 PM 42.0553 -73.7375 357° North 358 412 15,500 -2,360 Descending Boston Center
Tue 11:26:31 PM 42.1072 -73.7469 352° North 354 407 14,300 -2,300 Descending Boston Center
Tue 11:27:02 PM 42.1553 -73.7508 357° North 358 412 13,200 -2,149 Descending Boston Center
Tue 11:27:38 PM 42.2114 -73.7547 357° North 348 400 11,900 -2,000 Descending Boston Center
Tue 11:28:02 PM 42.2386 -73.7469 12° North 347 399 11,200 -1,300 Descending Boston Center
Tue 11:28:38 PM 42.3011 -73.7425 North 321 369 10,600 -1,113 Descending Boston Center
Tue 11:29:39 PM 42.3828 -73.7303 North 288 331 9,400 -1,475 Descending Boston Center
Tue 11:30:40 PM 42.4619 -73.7233 North 282 325 7,600 -1,736 Descending Boston Center
Tue 11:31:40 PM 42.5475 -73.7167 North 278 320 5,900 -1,686 Descending Boston Center
Tue 11:32:41 PM 42.6225 -73.7069 North 274 315 4,200 -1,190 Descending Boston Center
Tue 11:33:41 PM 42.6956 -73.7114 357° North 270 311 3,500 -595 Descending Boston Center
Tue 11:34:42 PM 42.7683 -73.7183 356° North 247 284 3,000 -639 Descending Boston Center
Tue 11:35:43 PM 42.8117 -73.7533 329° Northwest 179 206 2,200 -942 Descending Boston Center
Tue 11:36:43 PM 42.8006 -73.8069 254° West 125 144 1,100 -893 Descending Boston Center
Tue 11:37:44 PM 42.7653 -73.8061 179° South 118 136 400 -689 Descending Boston Center

Login

Don't have an account? Register now (free) for customized features, flight alerts, and more!